Have a Safe July 4th! 

Flight Track Log - Related Links

Times and Time Zones

All times are in EST time to prevent confusion due to time zone crossing. See the N990CB flight status page for this flight to view local times or setup timezone preferences in your user account.

Time Position Orientation Groundspeed Altitude Reporting Facility
EST Latitude Longitude Course Direction KTS MPH feet Rate Location/Type
Fri 12:42:37 PM 41.7136 -71.4342 275° West 116 133 700  Level Boston Center
Fri 12:43:13 PM 41.7153 -71.4578 275° West 106 122 1,900 1,723 Climbing Boston Center
Fri 12:44:11 PM 41.7217 -71.4983 282° West 118 136 3,400 1,343 Climbing Boston Center
Fri 12:44:20 PM 41.7225 -71.5067 278° West 127 146 3,400 98 Level Boston Center
Fri 12:45:12 PM 41.7322 -71.5586 284° West 169 194 3,500 109 Climbing Boston Center
Fri 12:45:15 PM 41.7319 -71.5650 267° West 183 211 3,500 -105 Level Boston Center
Fri 12:46:09 PM 41.7436 -71.6242 285° West 192 221 3,400 -105 Descending Boston Center
Fri 12:46:12 PM 41.7464 -71.6297 304° West 188 216 3,400  Level Boston Center
Fri 12:47:10 PM 41.7539 -71.7000 278° West 198 228 3,400  Level Boston Center
Fri 12:47:13 PM 41.7556 -71.6997 North 198 228 3,400  Level Boston Center
Fri 12:48:11 PM 41.7333 -71.7675 246° West 201 231 3,400  Level Boston Center
Fri 12:48:14 PM 41.7311 -71.7725 239° Southwest 201 231 3,400 787 Level Boston Center
Fri 12:49:12 PM 41.7169 -71.8364 253° West 193 222 4,200 885 Climbing Boston Center
Fri 12:49:15 PM 41.7161 -71.8411 257° West 194 223 4,300 2,500 Climbing Boston Center
Fri 12:49:36 PM 41.7106 -71.8589 247° West 163 188 5,200 2,066 Climbing Boston Center
Fri 12:50:16 PM 41.7039 -71.8878 253° West 132 152 6,400 1,418 Climbing Boston Center
Fri 12:50:31 PM 41.7006 -71.8986 248° West 117 135 6,500 98 Climbing Boston Center
Fri 12:51:17 PM 41.6947 -71.9378 259° West 138 159 6,500  Level Boston Center
Fri 12:51:32 PM 41.6903 -71.9525 248° West 161 185 6,500  Level Boston Center
Fri 12:52:18 PM 41.6797 -72.0028 254° West 169 194 6,500  Level Boston Center
Fri 12:52:33 PM 41.6756 -72.0164 248° West 171 197 6,500  Level Boston Center
Fri 12:53:18 PM 41.6661 -72.0656 256° West 176 203 6,500  Level Boston Center
Fri 12:53:40 PM 41.6600 -72.0856 248° West 175 201 6,500  Level Boston Center
Fri 12:54:19 PM 41.6528 -72.1275 257° West 175 201 6,500  Level Boston Center
Fri 12:54:40 PM 41.6472 -72.1503 252° West 176 203 6,500  Level Boston Center
Fri 12:55:20 PM 41.6383 -72.1906 254° West 177 204 6,500  Level Boston Center
Fri 12:55:41 PM 41.6331 -72.2114 251° West 177 204 6,500  Level Boston Center
Fri 12:56:20 PM 41.6250 -72.2533 256° West 176 203 6,500  Level Boston Center
Fri 12:56:47 PM 41.6169 -72.2831 250° West 177 204 6,500  Level Boston Center
Fri 12:57:24 PM 41.6097 -72.3175 254° West 176 203 6,500  Level Boston Center
Fri 12:57:42 PM 41.6058 -72.3394 257° West 178 205 6,500  Level Boston Center
Fri 12:58:25 PM 41.5936 -72.3864 251° West 181 208 6,500  Level Boston Center
Fri 12:58:43 PM 41.5883 -72.4053 250° West 182 209 6,500  Level Boston Center
Fri 12:59:25 PM 41.5806 -72.4511 257° West 180 207 6,500  Level Boston Center
Fri 12:59:49 PM 41.5744 -72.4750 251° West 180 207 6,500  Level Boston Center
Fri 01:00:26 PM 41.5653 -72.5150 253° West 181 208 6,500  Level Boston Center
Fri 01:00:50 PM 41.5592 -72.5414 253° West 183 211 6,500  Level Boston Center
Fri 01:01:27 PM 41.5497 -72.5806 252° West 186 214 6,500  Level Boston Center
Fri 01:01:45 PM 41.5453 -72.5997 253° West 184 212 6,500  Level Boston Center
Fri 01:02:27 PM 41.5358 -72.6464 255° West 185 213 6,500  Level Boston Center
Fri 01:02:52 PM 41.5281 -72.6739 249° West 182 209 6,500  Level Boston Center
Fri 01:03:31 PM 41.5197 -72.7161 255° West 184 212 6,500  Level Boston Center
Fri 01:04:31 PM 41.5050 -72.7819 253° West 185 213 6,500  Level Boston Center
Fri 01:05:32 PM 41.4883 -72.8483 251° West 188 216 6,500  Level Boston Center
Fri 01:06:33 PM 41.4742 -72.9144 254° West 186 214 6,500  Level Boston Center
Fri 01:07:34 PM 41.4578 -72.9864 253° West 189 217 6,500  Level Boston Center
Fri 01:08:36 PM 41.4419 -73.0542 253° West 191 220 6,500 -49 Level Boston Center
Fri 01:09:36 PM 41.4267 -73.1206 253° West 188 216 6,400  Descending Boston Center
Fri 01:10:37 PM 41.4111 -73.1864 253° West 188 216 6,500 48 Climbing Boston Center
Fri 01:11:40 PM 41.3944 -73.2583 253° West 190 219 6,500  Level Boston Center
Fri 01:12:41 PM 41.3778 -73.3253 252° West 191 220 6,500 55 Level Boston Center
Fri 01:13:30 PM 41.3667 -73.3833 256° West 189 217 6,600 55 Climbing New York TRACON
Fri 01:14:30 PM 41.3500 -73.4500 252° West 192 221 6,600  Level New York TRACON
Fri 01:15:30 PM 41.3333 -73.5167 252° West 189 217 6,600  Level New York TRACON
Fri 01:16:30 PM 41.3167 -73.5833 252° West 190 219 6,600  Level New York TRACON
Fri 01:17:30 PM 41.3000 -73.6500 252° West 194 223 6,600  Level New York TRACON
Fri 01:18:36 PM 41.2833 -73.7333 255° West 192 221 6,600  Level New York TRACON
Fri 01:19:36 PM 41.2667 -73.8000 252° West 194 223 6,600  Level New York TRACON
Fri 01:20:36 PM 41.2500 -73.8667 252° West 193 222 6,600  Level New York TRACON
Fri 01:21:36 PM 41.2333 -73.9333 252° West 195 224 6,600  Level New York TRACON
Fri 01:22:36 PM 41.2167 -74.0000 252° West 196 226 6,600  Level New York TRACON
Fri 01:23:36 PM 41.2000 -74.0667 252° West 197 227 6,600 -50 Level New York TRACON
Fri 01:24:36 PM 41.1833 -74.1333 252° West 202 232 6,500 -50 Descending New York TRACON
Fri 01:25:36 PM 41.1667 -74.2000 252° West 199 229 6,500  Level New York TRACON
Fri 01:26:36 PM 41.1500 -74.2833 255° West 199 229 6,500  Level New York TRACON
Fri 01:27:36 PM 41.1333 -74.3500 252° West 200 230 6,500  Level New York TRACON
Fri 01:28:36 PM 41.1167 -74.4167 252° West 198 228 6,500  Level New York TRACON
Fri 01:29:36 PM 41.1000 -74.4833 252° West 195 224 6,500  Level New York TRACON
Fri 01:30:30 PM 41.0833 -74.5500 252° West 199 229 6,500  Level New York TRACON
Fri 01:31:36 PM 41.0667 -74.6167 252° West 195 224 6,500 -476 Level New York TRACON
Fri 01:32:36 PM 41.0500 -74.6833 252° West 196 226 5,500 -1,300 Descending New York TRACON
Fri 01:33:36 PM 41.0333 -74.7500 252° West 183 211 3,900 -1,350 Descending New York TRACON
Fri 01:34:36 PM 41.0167 -74.8167 252° West 176 203 2,800 -1,100 Descending New York TRACON
Fri 01:36:00 PM 40.9833 -74.8998 270° West  Level FlightAware Approximate
Fri 01:43:00 PM 40.9667 -74.9833 246° West  Level FlightAware Approximate
Fri 01:44:00 PM 40.9711 -74.9975 246° West  Level Estimated
Fri 01:45:00 PM 40.9711 -74.9975 246° West  Level Estimated
Fri 01:46:00 PM 40.9711 -74.9975 246° West  Level Estimated
Fri 01:47:00 PM 40.9711 -74.9975 246° West  Level Estimated
Fri 01:48:00 PM 40.9711 -74.9975 246° West  Level Estimated
Fri 01:49:00 PM 40.9711 -74.9975 246° West  Level Estimated
Fri 01:50:00 PM 40.9711 -74.9975 246° West  Level Estimated
Fri 01:51:00 PM 40.9711 -74.9975 246° West  Level Estimated
Fri 01:52:00 PM 40.9711 -74.9975 246° West  Level Estimated
Fri 01:53:00 PM 40.9711 -74.9975 246° West  Level Estimated
Fri 01:54:00 PM 40.9711 -74.9975 246° West  Level Estimated
Fri 01:55:00 PM 40.9711 -74.9975 246° West  Level Estimated

Login

Don't have an account? Register now (free) for customized features, flight alerts, and more!